createdAt,value
2018-07-26T00:02:10.341Z,87.60
2018-07-26T00:09:35.019Z,87.60
2018-07-26T00:12:04.290Z,88.50
2018-07-26T00:14:32.210Z,89.10
2018-07-26T00:17:04.284Z,88.40
2018-07-26T00:19:32.734Z,87.80
2018-07-26T00:22:01.001Z,87.50
2018-07-26T00:24:29.472Z,87.20
2018-07-26T00:26:57.828Z,87.00
2018-07-26T00:31:54.120Z,86.70
2018-07-26T00:34:25.978Z,86.70
2018-07-26T00:39:22.361Z,86.60
2018-07-26T00:41:50.677Z,86.70
2018-07-26T00:44:19.269Z,86.70
2018-07-26T00:46:47.667Z,86.70
2018-07-26T00:49:15.765Z,86.90
2018-07-26T00:54:15.334Z,86.80
2018-07-26T00:59:11.709Z,87.00
2018-07-26T01:01:40.135Z,86.90
2018-07-26T01:04:08.512Z,87.10
2018-07-26T01:06:36.926Z,87.30
2018-07-26T01:11:40.968Z,89.80
2018-07-26T01:14:09.499Z,89.10
2018-07-26T01:16:37.761Z,88.80
2018-07-26T01:19:06.384Z,88.90
2018-07-26T01:24:02.977Z,88.90
2018-07-26T01:26:32.193Z,88.90
2018-07-26T01:31:35.737Z,89.00
2018-07-26T01:36:49.125Z,89.00
2018-07-26T01:39:17.708Z,89.00
2018-07-26T01:41:45.787Z,89.10
2018-07-26T01:44:55.315Z,89.20
2018-07-26T01:49:51.602Z,89.30
2018-07-26T01:52:20.831Z,89.50
2018-07-26T01:54:49.131Z,89.70
2018-07-26T01:57:17.623Z,89.80
2018-07-26T01:59:46.025Z,89.90
2018-07-26T02:02:14.311Z,90.00
2018-07-26T02:04:42.620Z,90.10
2018-07-26T02:09:39.105Z,90.20
2018-07-26T02:12:07.609Z,90.30
2018-07-26T02:14:36.027Z,90.30
2018-07-26T02:24:29.495Z,90.50
2018-07-26T02:26:57.904Z,90.50
2018-07-26T02:29:26.200Z,90.50
2018-07-26T02:34:22.473Z,90.60
2018-07-26T02:36:50.826Z,90.60
2018-07-26T02:39:19.089Z,90.80
2018-07-26T02:41:47.482Z,90.90
2018-07-26T02:46:43.881Z,91.00
2018-07-26T02:51:42.416Z,91.10
2018-07-26T02:56:38.809Z,91.10
2018-07-26T03:01:34.996Z,91.30
2018-07-26T03:06:31.470Z,91.40
2018-07-26T03:08:59.691Z,91.40
2018-07-26T03:11:28.304Z,91.40
2018-07-26T03:13:57.526Z,91.50
2018-07-26T03:16:25.894Z,91.60
2018-07-26T03:18:54.172Z,91.60
2018-07-26T03:21:22.605Z,91.70
2018-07-26T03:26:18.795Z,91.90
2018-07-26T03:31:19.081Z,93.00
2018-07-26T03:33:47.266Z,92.90
2018-07-26T03:38:43.732Z,92.70
2018-07-26T03:41:12.101Z,92.70
2018-07-26T03:43:40.322Z,92.70
2018-07-26T03:46:08.581Z,92.70
2018-07-26T03:48:36.930Z,92.60
2018-07-26T03:51:05.990Z,92.70
2018-07-26T03:53:34.352Z,93.00
2018-07-26T03:58:30.861Z,92.60
2018-07-26T04:00:59.059Z,92.70
2018-07-26T04:03:27.554Z,92.60
2018-07-26T04:05:56.073Z,92.60
2018-07-26T04:08:24.415Z,92.60
2018-07-26T04:10:52.637Z,92.60
2018-07-26T04:16:06.845Z,93.00
2018-07-26T04:18:35.006Z,92.80
2018-07-26T04:21:03.306Z,92.90
2018-07-26T04:23:31.716Z,92.80
2018-07-26T04:26:06.115Z,93.00
2018-07-26T04:28:34.445Z,93.10
2018-07-26T04:31:03.077Z,93.00
2018-07-26T04:33:31.573Z,93.40
2018-07-26T04:36:11.527Z,94.70
2018-07-26T04:38:39.936Z,95.10
2018-07-26T04:41:08.566Z,94.70
2018-07-26T04:43:46.629Z,94.00
2018-07-26T04:48:43.041Z,92.30
2018-07-26T04:51:11.428Z,91.00
2018-07-26T04:56:15.055Z,86.80
2018-07-26T04:58:43.472Z,84.00
2018-07-26T05:01:36.758Z,81.70
2018-07-26T05:04:05.742Z,79.40
2018-07-26T05:09:02.203Z,73.40
2018-07-26T05:11:30.529Z,71.50
2018-07-26T05:13:58.724Z,69.10
2018-07-26T05:16:45.640Z,67.40
2018-07-26T05:19:14.034Z,65.60
2018-07-26T05:24:10.527Z,62.60
2018-07-26T05:26:57.868Z,60.50
2018-07-26T05:29:26.161Z,59.00
2018-07-26T05:36:50.623Z,54.40
2018-07-26T05:39:20.286Z,53.20
2018-07-26T05:41:48.555Z,52.50
2018-07-26T05:44:16.988Z,51.40
2018-07-26T05:46:45.164Z,50.10
2018-07-26T05:49:21.541Z,48.80
2018-07-26T05:51:49.931Z,47.50
2018-07-26T06:06:43.646Z,39.30
2018-07-26T06:09:11.957Z,38.80
2018-07-26T06:11:40.490Z,37.90
2018-07-26T06:14:08.535Z,37.00
2018-07-26T06:16:36.446Z,36.10
2018-07-26T06:19:04.395Z,35.20
2018-07-26T06:21:32.357Z,34.50
2018-07-26T06:24:00.945Z,33.90
2018-07-26T06:26:28.921Z,33.20
2018-07-26T06:28:56.863Z,33.70
2018-07-26T06:31:24.826Z,33.40
2018-07-26T06:33:52.992Z,33.00
2018-07-26T06:36:22.053Z,32.60
2018-07-26T06:41:18.456Z,31.90
2018-07-26T06:43:47.652Z,31.60
2018-07-26T06:46:15.822Z,31.50
2018-07-26T06:48:44.045Z,31.20
2018-07-26T06:53:40.644Z,28.40
2018-07-26T06:58:37.250Z,28.50
2018-07-26T07:01:05.682Z,28.60
2018-07-26T07:03:34.031Z,28.60
2018-07-26T07:08:30.624Z,28.40
2018-07-26T07:10:58.906Z,28.50
2018-07-26T07:13:27.329Z,28.90
2018-07-26T07:20:51.916Z,27.50
2018-07-26T07:25:48.389Z,26.60
2018-07-26T07:28:16.801Z,26.50
2018-07-26T07:30:45.223Z,24.70
2018-07-26T07:33:13.623Z,23.80
2018-07-26T07:35:42.637Z,23.50
2018-07-26T07:38:11.223Z,23.30
2018-07-26T07:45:35.843Z,22.30
2018-07-26T07:48:04.454Z,21.40
2018-07-26T07:50:33.019Z,21.40
2018-07-26T07:55:29.604Z,21.50
2018-07-26T07:57:58.784Z,22.10
2018-07-26T08:00:27.164Z,22.10
2018-07-26T08:02:55.135Z,22.10
2018-07-26T08:05:23.211Z,21.80
2018-07-26T08:07:51.048Z,21.60
2018-07-26T08:10:19.509Z,21.60
2018-07-26T08:12:47.890Z,21.60
2018-07-26T08:17:44.597Z,22.40
2018-07-26T08:20:13.101Z,23.10
2018-07-26T08:22:41.586Z,23.90
2018-07-26T08:27:39.041Z,23.80
2018-07-26T08:30:08.717Z,23.90
2018-07-26T08:32:37.138Z,24.10
2018-07-26T08:35:05.577Z,24.00
2018-07-26T08:37:34.222Z,24.60
2018-07-26T08:40:02.636Z,24.90
2018-07-26T08:42:31.452Z,25.50
2018-07-26T08:44:59.679Z,26.40
2018-07-26T08:47:27.853Z,26.70
2018-07-26T08:52:24.353Z,28.70
2018-07-26T08:54:52.754Z,29.60
2018-07-26T08:57:21.794Z,30.00
2018-07-26T08:59:50.054Z,30.50
2018-07-26T09:02:18.331Z,31.60
2018-07-26T09:04:46.761Z,32.70
2018-07-26T09:09:44.156Z,34.60
2018-07-26T09:14:40.359Z,35.40
2018-07-26T09:19:37.083Z,36.20
2018-07-26T09:22:05.660Z,36.10
2018-07-26T09:24:34.309Z,36.50
2018-07-26T09:27:02.869Z,36.10
2018-07-26T09:29:31.249Z,36.40
2018-07-26T09:34:28.274Z,36.70
2018-07-26T09:36:56.579Z,36.90
2018-07-26T09:39:25.064Z,37.00
2018-07-26T09:41:54.099Z,36.90
2018-07-26T09:44:22.250Z,36.60
2018-07-26T09:46:50.687Z,37.00
2018-07-26T09:49:18.862Z,37.00
2018-07-26T09:51:48.502Z,36.80
2018-07-26T09:54:16.917Z,36.50
2018-07-26T09:56:45.519Z,36.00
2018-07-26T09:59:13.791Z,36.70
2018-07-26T10:04:22.030Z,36.40
2018-07-26T10:09:18.526Z,36.40
2018-07-26T10:11:53.249Z,36.00
2018-07-26T10:14:21.767Z,35.90
2018-07-26T10:16:49.993Z,35.70
2018-07-26T10:19:18.493Z,35.80
2018-07-26T10:24:41.355Z,36.60
2018-07-26T10:27:09.865Z,37.10
2018-07-26T10:29:38.169Z,37.40
2018-07-26T10:32:06.978Z,37.70
2018-07-26T10:34:51.744Z,37.70
2018-07-26T10:37:20.040Z,37.90
2018-07-26T10:39:48.446Z,38.00
2018-07-26T10:42:17.216Z,38.10
2018-07-26T10:44:45.767Z,38.20
2018-07-26T10:47:14.030Z,38.40
2018-07-26T10:49:42.555Z,38.70
2018-07-26T10:52:10.588Z,39.20
2018-07-26T10:54:42.733Z,39.80
2018-07-26T10:57:15.528Z,40.20
2018-07-26T10:59:48.078Z,40.50
2018-07-26T11:02:24.575Z,41.10
2018-07-26T11:07:23.848Z,41.20
2018-07-26T11:09:52.337Z,41.30
2018-07-26T11:14:49.031Z,41.30
2018-07-26T11:17:17.389Z,40.70
2018-07-26T11:22:46.456Z,39.90
2018-07-26T11:27:43.068Z,38.50
2018-07-26T11:30:18.003Z,38.80
2018-07-26T11:35:14.686Z,39.10
2018-07-26T11:37:48.470Z,38.90
2018-07-26T11:40:16.722Z,38.90
2018-07-26T11:42:45.110Z,39.10
2018-07-26T11:45:13.694Z,38.70
2018-07-26T11:50:41.992Z,38.70
2018-07-26T11:53:10.921Z,39.00
2018-07-26T11:58:09.265Z,39.60
2018-07-26T12:00:37.791Z,39.30
2018-07-26T12:03:06.031Z,38.20
2018-07-26T12:05:42.769Z,37.90
2018-07-26T12:08:15.002Z,37.90
2018-07-26T12:11:01.502Z,38.20
2018-07-26T12:13:40.044Z,38.00
2018-07-26T12:16:30.559Z,38.40
2018-07-26T12:19:11.388Z,38.60
2018-07-26T12:22:01.486Z,38.20
2018-07-26T12:24:41.545Z,38.30
2018-07-26T12:27:20.241Z,38.10
2018-07-26T12:30:01.202Z,37.80
2018-07-26T12:32:34.331Z,37.30
2018-07-26T12:37:44.701Z,37.00
2018-07-26T12:40:17.253Z,36.40
2018-07-26T12:42:53.935Z,36.30
2018-07-26T12:45:33.969Z,36.20
2018-07-26T12:48:20.881Z,35.90
2018-07-26T12:50:58.690Z,35.80
2018-07-26T12:53:39.888Z,35.60
2018-07-26T12:56:23.918Z,35.90
2018-07-26T12:58:58.992Z,35.40
2018-07-26T13:01:27.901Z,35.10
2018-07-26T13:08:53.019Z,35.10
2018-07-26T13:13:49.405Z,35.00
2018-07-26T13:18:47.716Z,35.30
2018-07-26T13:21:16.783Z,35.20
2018-07-26T13:23:45.287Z,34.40
2018-07-26T13:26:19.408Z,35.10
2018-07-26T13:29:23.463Z,35.40
2018-07-26T13:32:05.813Z,35.50
2018-07-26T13:34:51.911Z,34.50
2018-07-26T13:37:31.469Z,34.50
2018-07-26T13:42:34.684Z,34.10
2018-07-26T13:45:03.385Z,34.40
2018-07-26T13:47:31.878Z,34.80
2018-07-26T13:56:47.346Z,34.60
2018-07-26T13:59:30.468Z,34.70
2018-07-26T14:01:59.043Z,35.00
2018-07-26T14:04:27.688Z,34.70
2018-07-26T14:07:01.520Z,34.40
2018-07-26T14:09:44.100Z,34.20
2018-07-26T14:12:32.917Z,34.20
2018-07-26T14:15:17.475Z,34.40
2018-07-26T14:18:02.426Z,34.20
2018-07-26T14:21:04.422Z,34.40
2018-07-26T14:23:45.382Z,34.30
2018-07-26T14:26:38.084Z,34.80
2018-07-26T14:29:13.432Z,34.90
2018-07-26T14:31:54.091Z,35.10
2018-07-26T14:34:36.414Z,35.30
2018-07-26T14:37:19.317Z,35.40
2018-07-26T14:40:03.671Z,35.20
2018-07-26T14:45:28.799Z,34.50
2018-07-26T14:48:09.450Z,34.20
2018-07-26T14:50:54.813Z,33.70
2018-07-26T14:53:36.971Z,33.30
2018-07-26T14:56:05.842Z,33.40
2018-07-26T14:58:35.196Z,33.20
2018-07-26T15:01:03.800Z,33.20
2018-07-26T15:03:32.290Z,33.40
2018-07-26T15:08:29.950Z,33.70
2018-07-26T15:10:58.206Z,33.90
2018-07-26T15:13:26.598Z,33.80
2018-07-26T15:15:54.987Z,33.70
2018-07-26T15:18:23.422Z,34.10
2018-07-26T15:20:51.801Z,34.10
2018-07-26T15:23:20.099Z,33.70
2018-07-26T15:28:16.369Z,35.10
2018-07-26T15:33:12.981Z,35.80
2018-07-26T15:36:24.748Z,34.80
2018-07-26T15:38:53.031Z,34.60
2018-07-26T15:41:21.309Z,34.30
2018-07-26T15:43:49.642Z,34.50
2018-07-26T15:46:19.062Z,35.70
2018-07-26T15:51:15.333Z,36.80
2018-07-26T15:53:43.836Z,36.40
2018-07-26T15:56:12.561Z,36.30
2018-07-26T15:58:40.826Z,36.80
2018-07-26T16:01:09.236Z,36.40
2018-07-26T16:03:37.759Z,35.70
2018-07-26T16:06:06.347Z,35.60
2018-07-26T16:08:34.881Z,35.60
2018-07-26T16:11:03.359Z,36.10
2018-07-26T16:13:31.946Z,35.20
2018-07-26T16:16:00.150Z,35.60
2018-07-26T16:18:28.568Z,36.20
2018-07-26T16:20:56.935Z,36.70
2018-07-26T16:23:25.461Z,37.10
2018-07-26T16:28:22.561Z,37.70
2018-07-26T16:33:22.431Z,37.60
2018-07-26T16:35:50.518Z,37.70
2018-07-26T16:38:22.015Z,37.70
2018-07-26T16:45:46.808Z,37.60
2018-07-26T16:48:15.341Z,37.00
2018-07-26T16:50:44.182Z,36.60
2018-07-26T16:53:12.612Z,36.60
2018-07-26T16:55:41.124Z,36.60
2018-07-26T16:58:10.249Z,36.50
2018-07-26T17:00:38.532Z,36.70
2018-07-26T17:03:07.122Z,37.00
2018-07-26T17:05:35.833Z,37.10
2018-07-26T17:08:04.129Z,37.20
2018-07-26T17:10:32.633Z,37.30
2018-07-26T17:13:01.248Z,37.60
2018-07-26T17:15:29.641Z,37.90
2018-07-26T17:17:58.117Z,38.10
2018-07-26T17:22:54.665Z,38.20
2018-07-26T17:25:25.677Z,38.20
2018-07-26T17:27:55.435Z,38.40
2018-07-26T17:30:23.814Z,37.90
2018-07-26T17:32:52.103Z,37.80
2018-07-26T17:37:51.862Z,37.60
2018-07-26T17:40:20.575Z,37.90
2018-07-26T17:42:48.966Z,37.90
2018-07-26T17:45:17.630Z,37.90
2018-07-26T17:50:30.335Z,38.20
2018-07-26T17:55:26.800Z,38.10
2018-07-26T17:57:55.118Z,38.40
2018-07-26T18:02:52.369Z,38.80
2018-07-26T18:05:21.869Z,38.90
2018-07-26T18:07:50.365Z,38.90
2018-07-26T18:13:14.887Z,39.30
2018-07-26T18:15:43.367Z,39.60
2018-07-26T18:18:12.394Z,39.70
2018-07-26T18:23:08.378Z,40.00
2018-07-26T18:25:37.585Z,40.30
2018-07-26T18:28:06.096Z,40.60
2018-07-26T18:30:34.495Z,40.70
2018-07-26T18:35:31.594Z,41.10
2018-07-26T18:38:00.243Z,41.20
2018-07-26T18:40:29.024Z,41.80
2018-07-26T18:42:57.540Z,42.00
2018-07-26T18:45:26.460Z,42.70
2018-07-26T18:47:55.021Z,43.40
2018-07-26T18:50:23.450Z,43.60
2018-07-26T18:52:52.821Z,44.30
2018-07-26T18:55:21.408Z,44.50
2018-07-26T18:57:49.867Z,44.90
2018-07-26T19:00:18.384Z,45.20
2018-07-26T19:02:46.786Z,45.80
2018-07-26T19:05:15.863Z,45.40
2018-07-26T19:07:44.488Z,45.70
2018-07-26T19:10:12.777Z,45.60
2018-07-26T19:15:11.474Z,45.60
2018-07-26T19:17:40.350Z,45.70
2018-07-26T19:20:10.490Z,45.90
2018-07-26T19:22:38.802Z,45.70
2018-07-26T19:25:08.276Z,45.90
2018-07-26T19:30:06.904Z,47.40
2018-07-26T19:32:35.616Z,47.40
2018-07-26T19:35:04.125Z,47.60
2018-07-26T19:40:00.954Z,47.90
2018-07-26T19:42:29.554Z,48.00
2018-07-26T19:44:57.859Z,48.50
2018-07-26T19:47:27.067Z,48.60
2018-07-26T19:49:55.293Z,48.10
2018-07-26T19:52:24.008Z,48.00
2018-07-26T19:54:52.501Z,48.10
2018-07-26T19:57:21.078Z,49.10
2018-07-26T19:59:51.479Z,49.80
2018-07-26T20:02:20.414Z,50.20
2018-07-26T20:04:49.585Z,50.50
2018-07-26T20:07:18.784Z,50.80
2018-07-26T20:09:48.029Z,51.30
2018-07-26T20:12:16.879Z,51.40
2018-07-26T20:14:45.735Z,51.70
2018-07-26T20:17:14.425Z,52.00
2018-07-26T20:19:43.942Z,52.30
2018-07-26T20:22:12.749Z,52.50
2018-07-26T20:24:41.614Z,52.80
2018-07-26T20:27:13.768Z,52.90
2018-07-26T20:29:43.360Z,53.10
2018-07-26T20:32:11.973Z,53.30
2018-07-26T20:34:42.515Z,53.50
2018-07-26T20:37:10.811Z,53.70
2018-07-26T20:42:07.733Z,54.40
2018-07-26T20:44:37.341Z,54.10
2018-07-26T20:47:06.267Z,54.30
2018-07-26T20:49:34.733Z,54.40
2018-07-26T20:52:03.051Z,54.60
2018-07-26T20:54:31.652Z,54.70
2018-07-26T20:57:00.082Z,54.60
2018-07-26T20:59:28.530Z,54.60
2018-07-26T21:01:56.817Z,54.80
2018-07-26T21:04:28.927Z,54.80
2018-07-26T21:09:27.267Z,55.20
2018-07-26T21:11:59.831Z,55.30
2018-07-26T21:14:29.212Z,55.50
2018-07-26T21:16:57.930Z,55.60
2018-07-26T21:19:28.028Z,55.60
2018-07-26T21:21:56.970Z,55.70
2018-07-26T21:24:26.769Z,55.80
2018-07-26T21:26:55.354Z,56.00
2018-07-26T21:29:25.364Z,56.00
2018-07-26T21:32:00.338Z,56.20
2018-07-26T21:34:29.438Z,56.40
2018-07-26T21:41:55.496Z,57.00
2018-07-26T21:44:24.452Z,57.30
2018-07-26T21:46:53.497Z,57.40
2018-07-26T21:49:28.048Z,57.20
2018-07-26T21:51:57.261Z,57.90
2018-07-26T21:54:28.108Z,58.10
2018-07-26T21:56:56.399Z,58.20
2018-07-26T21:59:26.969Z,58.40
2018-07-26T22:01:56.208Z,58.60
2018-07-26T22:04:26.458Z,58.90
2018-07-26T22:06:55.001Z,58.90
2018-07-26T22:09:24.084Z,59.00
2018-07-26T22:11:53.389Z,59.10
2018-07-26T22:14:22.346Z,59.20
2018-07-26T22:19:19.647Z,59.50
2018-07-26T22:21:49.008Z,59.50
2018-07-26T22:24:18.382Z,59.60
2018-07-26T22:29:18.010Z,59.70
2018-07-26T22:31:46.720Z,59.70
2018-07-26T22:34:16.279Z,60.40
2018-07-26T22:36:45.621Z,59.80
2018-07-26T22:39:14.757Z,60.00
2018-07-26T22:41:43.667Z,60.20
2018-07-26T22:44:13.070Z,60.40
2018-07-26T22:46:42.209Z,60.60
2018-07-26T22:49:11.378Z,60.90
2018-07-26T22:51:40.196Z,61.20
2018-07-26T22:56:39.068Z,63.20
2018-07-26T23:01:36.668Z,63.30
2018-07-26T23:04:07.011Z,63.20
2018-07-26T23:06:36.288Z,63.60
2018-07-26T23:09:07.532Z,63.90
2018-07-26T23:11:36.468Z,64.20
2018-07-26T23:14:05.851Z,64.90
2018-07-26T23:16:34.888Z,65.50
2018-07-26T23:19:04.240Z,66.00
2018-07-26T23:21:32.673Z,66.50
2018-07-26T23:24:01.591Z,67.10
2018-07-26T23:28:59.863Z,67.90
2018-07-26T23:31:28.781Z,68.60
2018-07-26T23:36:27.126Z,70.20
2018-07-26T23:38:55.353Z,70.30
2018-07-26T23:41:25.512Z,71.00
2018-07-26T23:43:53.888Z,71.60
2018-07-26T23:46:22.213Z,71.90
2018-07-26T23:48:50.494Z,72.20
2018-07-26T23:53:47.191Z,73.20
2018-07-26T23:58:43.804Z,74.20
